Hauptseite
METAR-TAF:

METAR-TAF

Flughäfen :

Tschita, Russland

Flughafen Kadala

Breite: 52-05N, Länge: 113-29E, Höhe: 685 m

Beobachtung

Neuester Wetterbericht von vor 1 Stunde und 6 Minuten, um 13:00 UTC
Wind 6 kt aus West/Nordwest
Temperatur -4°C
Luftfeuchtigkeit 49%
Luftdruck 1021 hPa
Sichtweite 10 km oder mehr

METAR: UIAA 241300Z 29003MPS 9999 NSC M04/M13 Q1021 R29/70D NOSIG RMK QFE707

Zeit: 23:06 (14:06 UTC)

Prognose

Neuester Wetterbericht von vor 3 Stunden und 6 Minuten, um 11:00 UTC
Gültige Prognose vom 24 um 12 UTC bis 25 um 12 UTC
Wind 6 kt aus West/Nordwest
Sichtweite 10 km oder mehr

TAF: UIAA 241100Z 2412/2512 30003MPS 9999 NSC

Wetterbeobachtungen und Prognosen von mehr als 4000 Flughäfen (METAR und TAF Bericht).

Die verfügbaren Stationen werden durch gelbe und rote Markierungen auf der Karte dargestellt.

Führen Sie die Maus auf sie, um den Namen der Station zu sehen.

Darauf klicken, um die Beobachtung von Wetterbeobachtungen und Prognosen zu sehen.

Um die Karte zu ändern : klicken Sie auf den grünen Tasten mit einem schwarzen Kreuz Zum Vergrößern, auf den grünen Button mit einem Gedankenstrich zu verkleinern, oder auf die grünen Pfeile für benachbarte Karten.


METAR-TAF: